Time;durP1;ratioP1;P1;durP2;ratioP2;P2;SDS_P1;SDS_P2;PMS_P1;PMS_P2;Temp;Humidity;BMP_temperature;BMP_pressure;BME280_temperature;BME280_humidity;BME280_pressure;Samples;Min_cycle;Max_cycle;Signal;HPM_P1;HPM_P2
2022/10/04 00:00:24;;;;;;;;;;;4.80;99.90;;;;;;5076111;28;19920;-78
2022/10/04 00:02:50;;;;;;;;;;;4.80;99.90;;;;;;5069828;28;20302;-79
2022/10/04 00:05:17;;;;;;;;;;;4.90;99.90;;;;;;5046788;28;19917;-79
2022/10/04 00:07:48;;;;;;;;;;;5.00;99.90;;;;;;5049785;28;20594;-78
2022/10/04 00:10:19;;;;;;;;;;;5.00;99.90;;;;;;5047604;28;19975;-78
2022/10/04 00:12:47;;;;;;;;;;;5.00;99.90;;;;;;5042288;28;19952;-79
2022/10/04 00:15:16;;;;;;;;;;;4.90;99.90;;;;;;5054746;28;19966;-79
2022/10/04 00:17:41;;;;;;;;;;;4.90;99.90;;;;;;5055330;28;19917;-79
2022/10/04 00:20:27;;;;;;;;;;;4.80;99.90;;;;;;5062885;28;20286;-78
2022/10/04 00:23:11;;;;;;;;;;;4.80;99.90;;;;;;5057283;28;19992;-78
2022/10/04 00:25:36;;;;;;;;;;;4.80;99.90;;;;;;5056175;28;20389;-79
2022/10/04 00:28:20;;;;;;;;;;;4.70;99.90;;;;;;5063551;28;19963;-78
2022/10/04 00:31:04;;;;;;;;;;;4.70;99.90;;;;;;5055291;28;20003;-78
2022/10/04 00:33:34;;;;;;;;;;;4.70;99.90;;;;;;5058858;28;19920;-80
2022/10/04 00:35:59;;;;;;;;;;;4.60;99.90;;;;;;5062011;28;19916;-79
2022/10/04 00:38:26;;;;;;;;;;;4.50;99.90;;;;;;5054750;28;20618;-79
2022/10/04 00:41:00;;;;;;;;;;;4.60;99.90;;;;;;5056813;28;19921;-78
2022/10/04 00:43:29;;;;;;;;;;;4.50;99.90;;;;;;5059703;28;20012;-79
2022/10/04 00:45:58;;;;;;;;;;;4.50;99.90;;;;;;5055150;28;19916;-78
2022/10/04 00:48:29;;;;;;;;;;;4.50;99.90;;;;;;5057442;28;20481;-79
2022/10/04 00:51:27;;;;;;;;;;;4.50;99.90;;;;;;5056556;28;19920;-79
2022/10/04 00:54:02;;;;;;;;;;;4.50;99.90;;;;;;5013626;28;20379;-78
2022/10/04 00:56:27;;;;;;;;;;;4.40;99.90;;;;;;5039177;28;19908;-78
2022/10/04 00:58:53;;;;;;;;;;;4.50;99.90;;;;;;5045030;28;20405;-78
2022/10/04 01:01:22;;;;;;;;;;;4.60;99.90;;;;;;5050808;28;20007;-79
2022/10/04 01:03:50;;;;;;;;;;;4.80;99.90;;;;;;5082708;28;20285;-78
2022/10/04 01:06:16;;;;;;;;;;;4.80;99.90;;;;;;5077701;28;19943;-80
2022/10/04 01:08:48;;;;;;;;;;;4.90;99.90;;;;;;5074359;28;20455;-80
2022/10/04 01:11:19;;;;;;;;;;;5.10;99.90;;;;;;5080273;28;20390;-79
2022/10/04 01:13:50;;;;;;;;;;;5.00;99.90;;;;;;5075207;28;19965;-78
2022/10/04 01:16:17;;;;;;;;;;;5.00;99.90;;;;;;5078068;28;20333;-79
2022/10/04 01:18:43;;;;;;;;;;;5.10;99.90;;;;;;5079619;28;20393;-79
2022/10/04 01:21:18;;;;;;;;;;;4.90;99.90;;;;;;5082443;28;19973;-80
2022/10/04 01:23:47;;;;;;;;;;;4.90;99.90;;;;;;5078311;28;20368;-79
2022/10/04 01:26:31;;;;;;;;;;;5.00;99.90;;;;;;5087165;28;20422;-80
2022/10/04 01:28:58;;;;;;;;;;;5.00;99.90;;;;;;5081218;28;20577;-78
2022/10/04 01:31:25;;;;;;;;;;;4.90;99.90;;;;;;5065424;28;19920;-79
2022/10/04 01:33:51;;;;;;;;;;;4.80;99.90;;;;;;5063314;28;19916;-78
2022/10/04 01:36:16;;;;;;;;;;;4.80;99.90;;;;;;5065698;28;19964;-80
2022/10/04 01:38:42;;;;;;;;;;;4.80;99.90;;;;;;5056312;28;20010;-80
2022/10/04 01:41:09;;;;;;;;;;;4.70;99.90;;;;;;5063088;28;19916;-79
2022/10/04 01:43:36;;;;;;;;;;;4.80;99.90;;;;;;5059732;28;19929;-78
2022/10/04 01:46:08;;;;;;;;;;;4.80;99.90;;;;;;5057963;28;19912;-78
2022/10/04 01:48:35;;;;;;;;;;;4.90;99.90;;;;;;5044531;28;20028;-78
2022/10/04 01:51:04;;;;;;;;;;;4.90;99.90;;;;;;5049324;28;20382;-78
2022/10/04 01:53:31;;;;;;;;;;;5.00;99.90;;;;;;5070093;28;20279;-78
2022/10/04 01:56:04;;;;;;;;;;;5.00;99.90;;;;;;5060095;28;19924;-79
2022/10/04 01:58:32;;;;;;;;;;;5.10;99.90;;;;;;5063584;28;19921;-79
2022/10/04 02:01:02;;;;;;;;;;;5.20;99.90;;;;;;5054352;28;20562;-78
2022/10/04 02:03:57;;;;;;;;;;;5.30;99.90;;;;;;5061771;28;20290;-78
2022/10/04 02:06:23;;;;;;;;;;;5.30;99.90;;;;;;5051704;28;19940;-78
2022/10/04 02:08:53;;;;;;;;;;;5.50;99.90;;;;;;5055043;28;19920;-78
2022/10/04 02:11:20;;;;;;;;;;;5.50;99.90;;;;;;5062073;28;19952;-80
2022/10/04 02:13:47;;;;;;;;;;;5.50;99.90;;;;;;5055700;28;20278;-79
2022/10/04 02:16:13;;;;;;;;;;;5.60;99.90;;;;;;5056867;28;19921;-79
2022/10/04 02:18:39;;;;;;;;;;;5.60;99.90;;;;;;5065236;28;20005;-79
2022/10/04 02:21:06;;;;;;;;;;;5.50;99.90;;;;;;5058989;28;19916;-78
2022/10/04 02:23:32;;;;;;;;;;;5.60;99.90;;;;;;5055833;28;19940;-78
2022/10/04 02:25:58;;;;;;;;;;;5.60;99.90;;;;;;5051797;28;19951;-78
2022/10/04 02:28:24;;;;;;;;;;;5.60;99.90;;;;;;5060534;28;19963;-78
2022/10/04 02:33:40;;;;;;;;;;;5.60;99.90;;;;;;5059334;28;20020;-80
2022/10/04 02:36:07;;;;;;;;;;;5.60;99.90;;;;;;5063015;28;19916;-78
2022/10/04 02:38:34;;;;;;;;;;;5.60;99.90;;;;;;5051665;28;19917;-78
2022/10/04 02:41:32;;;;;;;;;;;5.60;99.90;;;;;;5063026;28;20377;-78
2022/10/04 02:44:00;;;;;;;;;;;5.50;99.90;;;;;;5043725;28;19924;-79
2022/10/04 02:46:35;;;;;;;;;;;5.50;99.90;;;;;;5053840;28;20440;-80
2022/10/04 02:49:05;;;;;;;;;;;5.40;99.90;;;;;;5066050;28;19927;-78
2022/10/04 02:51:44;;;;;;;;;;;5.30;99.90;;;;;;5057979;28;19920;-80
2022/10/04 02:54:13;;;;;;;;;;;5.30;99.90;;;;;;5056384;28;19955;-78
2022/10/04 02:56:39;;;;;;;;;;;5.30;99.90;;;;;;5060844;28;19917;-79
2022/10/04 02:59:05;;;;;;;;;;;5.30;99.90;;;;;;5060018;28;19923;-79
2022/10/04 03:01:44;;;;;;;;;;;5.40;99.90;;;;;;5055157;28;19928;-79
2022/10/04 03:04:11;;;;;;;;;;;5.30;99.90;;;;;;5062944;28;20472;-79
2022/10/04 03:06:36;;;;;;;;;;;5.40;99.90;;;;;;5056340;28;19921;-79
2022/10/04 03:09:04;;;;;;;;;;;5.50;99.90;;;;;;5057191;28;20361;-79
2022/10/04 03:11:32;;;;;;;;;;;5.50;99.90;;;;;;5061669;28;19912;-78
2022/10/04 03:13:59;;;;;;;;;;;5.50;99.90;;;;;;5059421;28;19912;-78
2022/10/04 03:16:24;;;;;;;;;;;5.50;99.90;;;;;;5051243;28;19943;-78
2022/10/04 03:18:52;;;;;;;;;;;5.50;99.90;;;;;;5065007;28;20434;-78
2022/10/04 03:21:18;;;;;;;;;;;5.50;99.90;;;;;;5054623;28;19920;-79
2022/10/04 03:23:45;;;;;;;;;;;5.50;99.90;;;;;;5053292;28;19936;-79
2022/10/04 03:26:26;;;;;;;;;;;5.40;99.90;;;;;;5061353;28;20063;-78
2022/10/04 03:28:52;;;;;;;;;;;5.30;99.90;;;;;;5059490;28;19921;-79
2022/10/04 03:31:18;;;;;;;;;;;5.40;99.90;;;;;;5053250;28;19924;-78
2022/10/04 03:33:44;;;;;;;;;;;5.50;99.90;;;;;;5062716;28;19913;-78
2022/10/04 03:36:12;;;;;;;;;;;5.50;99.90;;;;;;5060572;28;20430;-80
2022/10/04 03:38:39;;;;;;;;;;;5.60;99.90;;;;;;5054288;28;19923;-78
2022/10/04 03:41:05;;;;;;;;;;;5.50;99.90;;;;;;5059480;28;19924;-79
2022/10/04 03:43:32;;;;;;;;;;;5.50;99.90;;;;;;5059760;28;19963;-79
2022/10/04 03:46:04;;;;;;;;;;;5.50;99.90;;;;;;5051512;28;19912;-78
2022/10/04 03:48:29;;;;;;;;;;;5.40;99.90;;;;;;5057394;28;19982;-80
2022/10/04 03:50:55;;;;;;;;;;;5.30;99.90;;;;;;5059955;28;19917;-78
2022/10/04 03:53:29;;;;;;;;;;;5.40;99.90;;;;;;5060949;28;19934;-78
2022/10/04 03:55:55;;;;;;;;;;;5.30;99.90;;;;;;5062051;28;19917;-80
2022/10/04 03:58:21;;;;;;;;;;;5.40;99.90;;;;;;5060942;28;19923;-78
2022/10/04 04:01:06;;;;;;;;;;;5.30;99.90;;;;;;5052499;28;19917;-78
2022/10/04 04:03:36;;;;;;;;;;;5.40;99.90;;;;;;5060567;28;19917;-79
2022/10/04 04:06:04;;;;;;;;;;;5.40;99.90;;;;;;5056366;28;20695;-81
2022/10/04 04:08:35;;;;;;;;;;;5.40;99.90;;;;;;5054394;28;19921;-79
2022/10/04 04:11:02;;;;;;;;;;;5.40;99.90;;;;;;5064320;28;20400;-79
2022/10/04 04:13:43;;;;;;;;;;;5.30;99.90;;;;;;5060686;28;19920;-79
2022/10/04 04:16:10;;;;;;;;;;;5.30;99.90;;;;;;5051832;28;19939;-79
2022/10/04 04:18:37;;;;;;;;;;;5.20;99.90;;;;;;5065466;28;19966;-80
2022/10/04 04:21:03;;;;;;;;;;;5.10;99.90;;;;;;5058207;28;19917;-80
2022/10/04 04:23:31;;;;;;;;;;;5.20;99.90;;;;;;5053109;28;19917;-80
2022/10/04 04:26:00;;;;;;;;;;;5.10;99.90;;;;;;5061692;28;19944;-81
2022/10/04 04:28:28;;;;;;;;;;;5.20;99.90;;;;;;5056190;28;19924;-82
2022/10/04 04:31:00;;;;;;;;;;;5.20;99.90;;;;;;5050241;28;19999;-83
2022/10/04 04:33:28;;;;;;;;;;;5.20;99.90;;;;;;5057492;28;19920;-81
2022/10/04 04:35:55;;;;;;;;;;;5.30;99.90;;;;;;5063022;28;19923;-79
2022/10/04 04:38:23;;;;;;;;;;;5.30;99.90;;;;;;5056280;28;19990;-79
2022/10/04 04:40:49;;;;;;;;;;;5.30;99.90;;;;;;5056820;28;19979;-78
2022/10/04 04:43:21;;;;;;;;;;;5.30;99.90;;;;;;5060645;28;20456;-79
2022/10/04 04:45:48;;;;;;;;;;;5.20;99.90;;;;;;5055315;28;19986;-79
2022/10/04 04:48:15;;;;;;;;;;;5.10;99.90;;;;;;5056515;28;19917;-79
2022/10/04 04:50:40;;;;;;;;;;;5.20;99.90;;;;;;5054573;28;19928;-80
2022/10/04 04:53:19;;;;;;;;;;;5.30;99.90;;;;;;5054987;28;19921;-81
2022/10/04 04:55:49;;;;;;;;;;;5.20;99.90;;;;;;5052789;28;19928;-80
2022/10/04 04:58:23;;;;;;;;;;;5.20;99.90;;;;;;5057959;28;19921;-79
2022/10/04 05:00:53;;;;;;;;;;;5.20;99.90;;;;;;5042625;28;20398;-79
2022/10/04 05:03:19;;;;;;;;;;;5.10;99.90;;;;;;5068375;28;20381;-80
2022/10/04 05:05:46;;;;;;;;;;;5.10;99.90;;;;;;5056314;28;19928;-79
2022/10/04 05:08:14;;;;;;;;;;;5.00;99.90;;;;;;5048947;28;20444;-79
2022/10/04 05:10:58;;;;;;;;;;;5.00;99.90;;;;;;5052571;28;19943;-80
2022/10/04 05:13:28;;;;;;;;;;;5.10;99.90;;;;;;5053472;28;19938;-79
2022/10/04 05:16:09;;;;;;;;;;;4.90;99.90;;;;;;5050324;28;19920;-78
2022/10/04 05:18:35;;;;;;;;;;;5.00;99.90;;;;;;5049021;28;19928;-79
2022/10/04 05:21:05;;;;;;;;;;;4.90;99.90;;;;;;5052499;28;19921;-78
2022/10/04 05:23:32;;;;;;;;;;;4.80;99.90;;;;;;5054234;28;19975;-80
2022/10/04 05:25:59;;;;;;;;;;;4.80;99.90;;;;;;5056386;28;19917;-78
2022/10/04 05:28:24;;;;;;;;;;;4.70;99.90;;;;;;5057228;28;20378;-79
2022/10/04 05:30:50;;;;;;;;;;;4.70;99.90;;;;;;5054760;28;19928;-79
2022/10/04 05:33:25;;;;;;;;;;;4.80;99.90;;;;;;5056029;28;19913;-78
2022/10/04 05:35:50;;;;;;;;;;;4.90;99.90;;;;;;5051929;28;20003;-79
2022/10/04 05:38:34;;;;;;;;;;;5.00;99.90;;;;;;5051503;28;20478;-81
2022/10/04 05:41:05;;;;;;;;;;;5.00;99.90;;;;;;5052850;28;19917;-78
2022/10/04 05:43:34;;;;;;;;;;;5.10;99.90;;;;;;5053479;28;19921;-80
2022/10/04 05:46:12;;;;;;;;;;;5.20;99.90;;;;;;5047194;28;19924;-78
2022/10/04 05:48:40;;;;;;;;;;;5.20;99.90;;;;;;5051058;28;19921;-78
2022/10/04 05:51:32;;;;;;;;;;;5.30;99.90;;;;;;5058571;28;20632;-79
2022/10/04 05:54:01;;;;;;;;;;;5.20;99.90;;;;;;5039570;28;19917;-78
2022/10/04 05:56:27;;;;;;;;;;;5.30;99.90;;;;;;5058314;28;19920;-78
2022/10/04 05:59:11;;;;;;;;;;;5.50;99.90;;;;;;5058284;28;19917;-78
2022/10/04 06:01:52;;;;;;;;;;;5.50;99.90;;;;;;5047971;28;19932;-78
2022/10/04 06:04:32;;;;;;;;;;;5.60;99.90;;;;;;5048523;28;19920;-78
2022/10/04 06:07:00;;;;;;;;;;;5.60;99.90;;;;;;5049358;28;20600;-78
2022/10/04 06:09:37;;;;;;;;;;;5.60;99.90;;;;;;5047946;28;19917;-78
2022/10/04 06:12:09;;;;;;;;;;;5.60;99.90;;;;;;5047539;28;20367;-78
2022/10/04 06:14:44;;;;;;;;;;;5.60;99.90;;;;;;5048846;28;20023;-78
2022/10/04 06:17:28;;;;;;;;;;;5.50;99.90;;;;;;5047331;28;20351;-78
2022/10/04 06:20:04;;;;;;;;;;;5.60;99.90;;;;;;5045428;28;20445;-79
2022/10/04 06:22:30;;;;;;;;;;;5.60;99.90;;;;;;5050471;28;19962;-78
2022/10/04 06:24:59;;;;;;;;;;;5.80;99.90;;;;;;5048362;28;19917;-78
2022/10/04 06:27:28;;;;;;;;;;;5.90;99.90;;;;;;5046800;28;19921;-78
2022/10/04 06:30:13;;;;;;;;;;;5.80;99.90;;;;;;5048723;28;19916;-78
2022/10/04 06:32:57;;;;;;;;;;;5.80;99.90;;;;;;5048512;28;19927;-78
2022/10/04 06:35:26;;;;;;;;;;;5.80;99.90;;;;;;5046975;28;19964;-78
2022/10/04 06:37:51;;;;;;;;;;;6.00;99.90;;;;;;5044191;28;19913;-77
2022/10/04 06:40:20;;;;;;;;;;;6.10;99.90;;;;;;5046923;28;19935;-78
2022/10/04 06:42:45;;;;;;;;;;;6.30;99.90;;;;;;5047355;28;20302;-77
2022/10/04 06:45:17;;;;;;;;;;;6.40;99.90;;;;;;5047539;28;19917;-78
2022/10/04 06:47:46;;;;;;;;;;;6.60;99.90;;;;;;5047352;28;19991;-78
2022/10/04 06:50:26;;;;;;;;;;;6.50;99.90;;;;;;5045121;28;19917;-78
2022/10/04 06:53:01;;;;;;;;;;;6.50;99.90;;;;;;5047914;28;19917;-78
2022/10/04 06:55:38;;;;;;;;;;;6.60;99.90;;;;;;5047747;28;19919;-78
2022/10/04 06:58:13;;;;;;;;;;;6.50;99.90;;;;;;5048868;28;19976;-77
2022/10/04 07:00:59;;;;;;;;;;;6.60;99.90;;;;;;5047559;28;19920;-77
2022/10/04 07:03:48;;;;;;;;;;;6.60;99.90;;;;;;5059622;28;19917;-78
2022/10/04 07:06:14;;;;;;;;;;;6.70;99.90;;;;;;5039871;28;19940;-77
2022/10/04 07:08:40;;;;;;;;;;;6.90;99.90;;;;;;5055235;28;19920;-77
2022/10/04 07:11:12;;;;;;;;;;;6.90;99.90;;;;;;5063143;28;20010;-77
2022/10/04 07:13:39;;;;;;;;;;;7.20;99.90;;;;;;5056181;28;19975;-77
2022/10/04 07:16:04;;;;;;;;;;;7.40;99.90;;;;;;5056705;28;19967;-78
2022/10/04 07:18:40;;;;;;;;;;;7.40;99.70;;;;;;5059635;28;20477;-78
2022/10/04 07:21:11;;;;;;;;;;;7.60;98.80;;;;;;5064534;28;19916;-77
2022/10/04 07:23:57;;;;;;;;;;;7.40;97.70;;;;;;5046627;28;20691;-77
2022/10/04 07:26:29;;;;;;;;;;;7.60;97.90;;;;;;5054279;28;20358;-77
2022/10/04 07:31:41;;;;;;;;;;;7.70;99.90;;;;;;5044542;28;19924;-77
2022/10/04 07:34:14;;;;;;;;;;;7.90;99.50;;;;;;5058214;28;19921;-78
2022/10/04 07:36:52;;;;;;;;;;;7.70;99.30;;;;;;5053803;28;19928;-77
2022/10/04 07:39:19;;;;;;;;;;;7.70;98.80;;;;;;5052432;28;19935;-80
2022/10/04 07:41:49;;;;;;;;;;;7.70;99.00;;;;;;5059849;28;19984;-79
2022/10/04 07:44:29;;;;;;;;;;;7.60;98.90;;;;;;5058692;28;19924;-79
2022/10/04 07:46:58;;;;;;;;;;;8.00;97.80;;;;;;5057313;28;19916;-79
2022/10/04 07:49:24;;;;;;;;;;;8.10;97.80;;;;;;5060793;28;20292;-79
2022/10/04 07:52:08;;;;;;;;;;;8.00;97.00;;;;;;5055798;28;19924;-79
2022/10/04 07:54:37;;;;;;;;;;;8.00;97.80;;;;;;5059526;28;19939;-78
2022/10/04 07:57:06;;;;;;;;;;;7.80;96.70;;;;;;5059831;28;19934;-78
2022/10/04 07:59:40;;;;;;;;;;;8.00;97.70;;;;;;5052048;28;19924;-78
2022/10/04 08:02:14;;;;;;;;;;;7.80;97.40;;;;;;5052027;28;19968;-79
2022/10/04 08:04:58;;;;;;;;;;;8.20;98.50;;;;;;5054287;28;20693;-80
2022/10/04 08:07:42;;;;;;;;;;;8.30;97.40;;;;;;5050833;28;19916;-79
2022/10/04 08:10:30;;;;;;;;;;;8.30;96.90;;;;;;5049601;28;19917;-79
2022/10/04 08:13:04;;;;;;;;;;;8.10;97.00;;;;;;5046722;28;19913;-79
2022/10/04 08:15:33;;;;;;;;;;;8.20;96.90;;;;;;5051217;28;19917;-79
2022/10/04 08:18:01;;;;;;;;;;;8.30;96.60;;;;;;5049660;28;19923;-79
2022/10/04 08:20:30;;;;;;;;;;;8.10;97.70;;;;;;5048158;28;19939;-79
2022/10/04 08:22:58;;;;;;;;;;;8.20;95.80;;;;;;5049330;28;19917;-80
2022/10/04 08:25:32;;;;;;;;;;;8.20;95.20;;;;;;5054016;28;19923;-78
2022/10/04 08:30:47;;;;;;;;;;;8.40;95.00;;;;;;5049122;28;20013;-78
2022/10/04 08:33:33;;;;;;;;;;;8.40;96.40;;;;;;5056083;28;19917;-78
2022/10/04 08:35:59;;;;;;;;;;;8.30;95.20;;;;;;5033705;28;19917;-79
2022/10/04 08:38:41;;;;;;;;;;;8.10;96.40;;;;;;5047592;28;20297;-78
2022/10/04 08:41:26;;;;;;;;;;;8.50;95.70;;;;;;5051562;28;20007;-78
2022/10/04 08:43:55;;;;;;;;;;;8.50;95.30;;;;;;5049368;28;19924;-79
2022/10/04 08:46:41;;;;;;;;;;;8.30;94.40;;;;;;5048099;28;19913;-80
2022/10/04 08:49:06;;;;;;;;;;;8.60;94.80;;;;;;5050659;28;20453;-79
2022/10/04 08:51:51;;;;;;;;;;;8.60;94.50;;;;;;5053496;28;19966;-79
2022/10/04 08:54:39;;;;;;;;;;;8.90;94.00;;;;;;5049315;28;19924;-79
2022/10/04 08:57:17;;;;;;;;;;;9.00;95.10;;;;;;5048267;28;20354;-78
2022/10/04 08:59:48;;;;;;;;;;;9.50;94.10;;;;;;5048714;28;19960;-78
2022/10/04 09:02:29;;;;;;;;;;;10.00;91.20;;;;;;5053899;28;19928;-78
2022/10/04 09:05:20;;;;;;;;;;;9.90;90.90;;;;;;5047571;28;19919;-78
2022/10/04 09:07:46;;;;;;;;;;;9.40;91.20;;;;;;5046623;28;20382;-79
2022/10/04 09:10:32;;;;;;;;;;;9.30;91.40;;;;;;5052390;28;19931;-79
2022/10/04 09:13:09;;;;;;;;;;;9.50;92.00;;;;;;5052109;28;19924;-79
2022/10/04 09:15:51;;;;;;;;;;;9.50;91.10;;;;;;5051288;28;19992;-79
2022/10/04 09:18:21;;;;;;;;;;;9.80;91.90;;;;;;5048713;28;20033;-78
2022/10/04 09:20:57;;;;;;;;;;;9.90;90.30;;;;;;5051284;28;19974;-78
2022/10/04 09:23:41;;;;;;;;;;;10.20;88.40;;;;;;5050928;28;19923;-78
2022/10/04 09:26:22;;;;;;;;;;;10.50;88.50;;;;;;5048321;28;19917;-78
2022/10/04 09:29:07;;;;;;;;;;;10.20;87.40;;;;;;5049737;28;19921;-78
2022/10/04 09:31:51;;;;;;;;;;;10.30;90.20;;;;;;5065381;28;19972;-78
2022/10/04 09:34:32;;;;;;;;;;;10.20;90.40;;;;;;5070030;28;19921;-78
2022/10/04 09:37:01;;;;;;;;;;;10.30;91.00;;;;;;5088983;28;19985;-78
2022/10/04 09:39:30;;;;;;;;;;;10.70;89.00;;;;;;5076978;28;19995;-78
2022/10/04 09:41:55;;;;;;;;;;;10.80;87.50;;;;;;5069403;28;19913;-79
2022/10/04 09:44:39;;;;;;;;;;;10.80;88.80;;;;;;5072261;28;19927;-79
2022/10/04 09:47:11;;;;;;;;;;;11.00;88.20;;;;;;5076475;28;19920;-78
2022/10/04 09:49:54;;;;;;;;;;;10.80;87.80;;;;;;5069861;28;19978;-79
2022/10/04 09:52:32;;;;;;;;;;;10.70;88.80;;;;;;5068802;28;19916;-79
2022/10/04 09:54:57;;;;;;;;;;;11.10;90.40;;;;;;5076520;28;20310;-78
2022/10/04 09:57:42;;;;;;;;;;;11.50;88.80;;;;;;5072034;28;19913;-78
2022/10/04 10:00:13;;;;;;;;;;;11.80;87.80;;;;;;5073353;28;19924;-78
2022/10/04 10:02:51;;;;;;;;;;;11.80;89.40;;;;;;5073597;28;19916;-78
2022/10/04 10:05:19;;;;;;;;;;;11.80;86.60;;;;;;5072806;28;19921;-78
2022/10/04 10:07:45;;;;;;;;;;;12.20;86.60;;;;;;5073745;28;20285;-78
2022/10/04 10:13:39;;;;;;;;;;;12.00;85.80;;;;;;5070587;28;19927;-78
2022/10/04 10:16:24;;;;;;;;;;;11.90;86.00;;;;;;5073959;28;19916;-79
2022/10/04 10:19:11;;;;;;;;;;;12.10;86.40;;;;;;5072701;28;20011;-80
2022/10/04 10:21:46;;;;;;;;;;;12.10;88.00;;;;;;5075559;28;19916;-79
2022/10/04 10:24:14;;;;;;;;;;;12.40;87.20;;;;;;5075388;28;19921;-79
2022/10/04 10:26:55;;;;;;;;;;;12.50;86.80;;;;;;5077301;28;20294;-79
2022/10/04 10:29:29;;;;;;;;;;;12.60;85.50;;;;;;5073434;28;19920;-82
2022/10/04 10:32:04;;;;;;;;;;;12.50;84.20;;;;;;5064262;28;19920;-79
2022/10/04 10:34:51;;;;;;;;;;;12.50;83.90;;;;;;5054430;28;19924;-79
2022/10/04 10:37:35;;;;;;;;;;;12.60;83.50;;;;;;5054001;28;19982;-79
2022/10/04 10:40:09;;;;;;;;;;;12.80;83.30;;;;;;5055149;28;20042;-79
2022/10/04 10:42:41;;;;;;;;;;;13.20;83.30;;;;;;5051711;28;19924;-79
2022/10/04 10:45:13;;;;;;;;;;;13.70;80.20;;;;;;5058987;28;20392;-78
2022/10/04 10:47:58;;;;;;;;;;;13.90;77.80;;;;;;5054562;28;19916;-78
2022/10/04 10:50:57;;;;;;;;;;;13.90;78.80;;;;;;5048335;28;19928;-78
2022/10/04 10:53:42;;;;;;;;;;;14.30;76.80;;;;;;5054587;28;19999;-78
2022/10/04 10:56:26;;;;;;;;;;;14.60;76.60;;;;;;5056221;28;19913;-78
2022/10/04 10:58:56;;;;;;;;;;;14.80;76.00;;;;;;5055503;28;19924;-79
2022/10/04 11:01:40;;;;;;;;;;;14.70;75.10;;;;;;5049502;28;20001;-78
2022/10/04 11:04:06;;;;;;;;;;;15.00;72.60;;;;;;5048100;28;19912;-79
2022/10/04 11:06:43;;;;;;;;;;;15.30;72.40;;;;;;5051303;28;19924;-82
2022/10/04 11:09:21;;;;;;;;;;;15.40;72.20;;;;;;5052770;28;20371;-79
2022/10/04 11:12:04;;;;;;;;;;;16.00;71.50;;;;;;5050050;28;19916;-81
2022/10/04 11:14:39;;;;;;;;;;;15.70;73.00;;;;;;5049656;28;19912;-80
2022/10/04 11:17:19;;;;;;;;;;;15.70;71.30;;;;;;5053594;28;19943;-80
2022/10/04 11:20:04;;;;;;;;;;;15.70;72.20;;;;;;5049071;28;19920;-80
2022/10/04 11:22:41;;;;;;;;;;;15.70;70.30;;;;;;5051928;28;20031;-81
2022/10/04 11:25:06;;;;;;;;;;;15.70;70.30;;;;;;5055336;28;19939;-79
2022/10/04 11:27:32;;;;;;;;;;;15.90;68.80;;;;;;5052627;28;20386;-81
2022/10/04 11:29:57;;;;;;;;;;;16.20;71.00;;;;;;5051821;28;19913;-81
2022/10/04 11:32:40;;;;;;;;;;;16.40;68.60;;;;;;5053384;28;20400;-81
2022/10/04 11:35:24;;;;;;;;;;;16.30;66.40;;;;;;5054826;28;19970;-81
2022/10/04 11:37:57;;;;;;;;;;;16.50;66.80;;;;;;5049125;28;19917;-81
2022/10/04 11:40:28;;;;;;;;;;;16.40;68.00;;;;;;5051665;28;20665;-81
2022/10/04 11:43:00;;;;;;;;;;;16.60;67.60;;;;;;5065510;28;19979;-81
2022/10/04 11:45:45;;;;;;;;;;;16.10;67.10;;;;;;5052196;28;19921;-81
2022/10/04 11:48:16;;;;;;;;;;;16.90;67.30;;;;;;5050546;28;19974;-80
2022/10/04 11:50:50;;;;;;;;;;;17.70;64.30;;;;;;5047410;28;20214;-79
2022/10/04 11:53:15;;;;;;;;;;;18.10;59.50;;;;;;5048073;28;20384;-80
2022/10/04 11:55:41;;;;;;;;;;;18.80;61.50;;;;;;5047388;28;19917;-80
2022/10/04 11:58:07;;;;;;;;;;;19.10;59.40;;;;;;5052084;28;20281;-79
2022/10/04 12:00:57;;;;;;;;;;;19.40;58.10;;;;;;5053009;28;19916;-80
2022/10/04 12:03:26;;;;;;;;;;;19.60;55.70;;;;;;5056888;28;20003;-80
2022/10/04 12:06:12;;;;;;;;;;;19.80;56.40;;;;;;5087107;28;19913;-81
2022/10/04 12:08:45;;;;;;;;;;;20.80;54.50;;;;;;5046629;28;19925;-81
2022/10/04 12:12:35;;;;;;;;;;;20.00;54.50;;;;;;5056530;28;19921;-80
2022/10/04 12:14:30;;;;;;;;;;;21.00;51.80;;;;;;5052468;28;19921;-80
2022/10/04 12:16:55;;;;;;;;;;;21.70;51.00;;;;;;5057665;28;20390;-78
2022/10/04 12:19:40;;;;;;;;;;;22.10;48.10;;;;;;5055449;28;19912;-79
2022/10/04 12:22:25;;;;;;;;;;;22.10;49.90;;;;;;5051154;28;20003;-78
2022/10/04 12:24:50;;;;;;;;;;;20.40;50.70;;;;;;5055298;28;19924;-78
2022/10/04 12:27:34;;;;;;;;;;;21.20;48.00;;;;;;5054806;28;20459;-78
2022/10/04 12:30:00;;;;;;;;;;;21.80;50.40;;;;;;5058680;28;19939;-79
2022/10/04 12:32:41;;;;;;;;;;;22.00;49.20;;;;;;5044027;28;19921;-79
2022/10/04 12:35:09;;;;;;;;;;;22.00;48.80;;;;;;5044637;28;19920;-79
2022/10/04 12:38:01;;;;;;;;;;;22.70;47.80;;;;;;5046659;28;19913;-78
2022/10/04 12:40:36;;;;;;;;;;;22.00;49.20;;;;;;5043478;28;20004;-78
2022/10/04 12:43:04;;;;;;;;;;;21.60;50.40;;;;;;5045336;28;19921;-78
2022/10/04 12:45:30;;;;;;;;;;;22.40;48.50;;;;;;5046080;28;19998;-77
2022/10/04 12:48:02;;;;;;;;;;;22.40;48.50;;;;;;5048248;28;19920;-77
2022/10/04 12:50:46;;;;;;;;;;;22.90;45.40;;;;;;5043354;28;19924;-78
2022/10/04 12:53:33;;;;;;;;;;;22.00;47.70;;;;;;5045450;28;19921;-78
2022/10/04 12:56:06;;;;;;;;;;;21.80;48.00;;;;;;5040038;28;20004;-80
2022/10/04 12:58:50;;;;;;;;;;;22.10;47.40;;;;;;5042948;28;19960;-78
2022/10/04 13:01:18;;;;;;;;;;;24.40;43.70;;;;;;5049392;28;20386;-78
2022/10/04 13:03:53;;;;;;;;;;;24.00;43.80;;;;;;5079054;28;19970;-77
2022/10/04 13:06:23;;;;;;;;;;;22.80;44.50;;;;;;5078887;28;19919;-77
2022/10/04 13:08:49;;;;;;;;;;;21.80;48.80;;;;;;5078717;28;19942;-76
2022/10/04 13:11:34;;;;;;;;;;;20.70;52.70;;;;;;5082720;28;19913;-76
2022/10/04 13:14:14;;;;;;;;;;;20.20;55.10;;;;;;5077337;28;19920;-76
2022/10/04 13:17:08;;;;;;;;;;;19.50;56.00;;;;;;5078835;28;19916;-76
2022/10/04 13:19:40;;;;;;;;;;;19.60;57.10;;;;;;5059588;28;20038;-75
2022/10/04 13:22:09;;;;;;;;;;;20.40;55.30;;;;;;5074175;28;20009;-76
2022/10/04 13:25:03;;;;;;;;;;;22.60;48.70;;;;;;5080680;28;20662;-75
2022/10/04 13:27:40;;;;;;;;;;;23.10;46.20;;;;;;5045660;28;19913;-75
2022/10/04 13:30:15;;;;;;;;;;;23.80;44.70;;;;;;5073940;28;20090;-75
2022/10/04 13:32:55;;;;;;;;;;;24.50;43.60;;;;;;5067763;28;19917;-76
2022/10/04 13:35:35;;;;;;;;;;;24.00;44.40;;;;;;5059248;28;19923;-76
2022/10/04 13:38:19;;;;;;;;;;;25.90;41.70;;;;;;5062550;28;19912;-77
2022/10/04 13:40:54;;;;;;;;;;;24.20;43.50;;;;;;5059271;28;19959;-75
2022/10/04 13:43:20;;;;;;;;;;;24.80;43.30;;;;;;5058213;28;20028;-75
2022/10/04 13:46:10;;;;;;;;;;;24.00;43.70;;;;;;5057871;28;20381;-76
2022/10/04 13:48:41;;;;;;;;;;;23.70;44.80;;;;;;5062984;28;20019;-77
2022/10/04 13:51:06;;;;;;;;;;;23.00;46.20;;;;;;5057090;28;20447;-77
2022/10/04 13:56:36;;;;;;;;;;;21.80;48.90;;;;;;5063900;28;19920;-76
2022/10/04 13:59:02;;;;;;;;;;;23.20;47.10;;;;;;5054667;28;19917;-77
2022/10/04 14:01:55;;;;;;;;;;;24.10;44.60;;;;;;5073021;28;19947;-77
2022/10/04 14:04:29;;;;;;;;;;;23.80;45.60;;;;;;5079645;28;20382;-77
2022/10/04 14:07:11;;;;;;;;;;;24.50;43.30;;;;;;5079970;28;19916;-77
2022/10/04 14:09:39;;;;;;;;;;;25.30;41.00;;;;;;5086905;28;19916;-77
2022/10/04 14:12:37;;;;;;;;;;;25.00;41.00;;;;;;5080967;28;20343;-77
2022/10/04 14:15:15;;;;;;;;;;;25.90;39.80;;;;;;5060085;28;20018;-77
2022/10/04 14:17:41;;;;;;;;;;;27.40;37.30;;;;;;5075919;28;19970;-76
2022/10/04 14:20:25;;;;;;;;;;;27.30;36.70;;;;;;5077914;28;19912;-77
2022/10/04 14:23:02;;;;;;;;;;;27.20;36.70;;;;;;5080112;28;19917;-77
2022/10/04 14:25:38;;;;;;;;;;;27.50;36.20;;;;;;5082351;28;19916;-76
2022/10/04 14:28:09;;;;;;;;;;;26.40;36.60;;;;;;5075813;28;20623;-76
2022/10/04 14:30:58;;;;;;;;;;;25.10;39.50;;;;;;5072645;28;19923;-75
2022/10/04 14:33:24;;;;;;;;;;;24.10;41.70;;;;;;5076771;28;20404;-76
2022/10/04 14:35:53;;;;;;;;;;;23.30;44.10;;;;;;5084202;28;20010;-76
2022/10/04 14:38:24;;;;;;;;;;;23.40;43.70;;;;;;5076922;28;19916;-76
2022/10/04 14:41:09;;;;;;;;;;;23.50;45.00;;;;;;5082128;28;19924;-76
2022/10/04 14:43:53;;;;;;;;;;;24.20;42.10;;;;;;5073970;28;19931;-76
2022/10/04 14:46:37;;;;;;;;;;;26.70;37.90;;;;;;5079906;28;19923;-76
2022/10/04 14:49:03;;;;;;;;;;;27.50;36.10;;;;;;5079028;28;19918;-76
2022/10/04 14:51:34;;;;;;;;;;;29.40;33.30;;;;;;5074660;28;19936;-76
2022/10/04 14:54:06;;;;;;;;;;;28.60;33.30;;;;;;5094272;28;19913;-75
2022/10/04 14:56:38;;;;;;;;;;;29.00;32.60;;;;;;5095542;28;19991;-75
2022/10/04 14:59:27;;;;;;;;;;;29.70;31.80;;;;;;5083279;28;19916;-76
2022/10/04 15:01:58;;;;;;;;;;;29.10;32.20;;;;;;5055001;28;20298;-77
2022/10/04 15:04:55;;;;;;;;;;;28.10;33.00;;;;;;5074994;28;19944;-76
2022/10/04 15:07:41;;;;;;;;;;;27.60;34.40;;;;;;5079525;28;20018;-75
2022/10/04 15:10:20;;;;;;;;;;;26.20;36.90;;;;;;5076344;28;19916;-77
2022/10/04 15:13:02;;;;;;;;;;;26.20;37.90;;;;;;5074401;28;19912;-75
2022/10/04 15:15:35;;;;;;;;;;;26.00;38.60;;;;;;5075659;28;20011;-75
2022/10/04 15:18:10;;;;;;;;;;;27.40;35.40;;;;;;5077060;28;19920;-75